Etusivu
METAR-TAF:

METAR-TAF

Lentoasemat :

Nassau, Bahama

Lynden Pindlingin kansainvälinen lentoasema

Leveyspiiri: 25-03N, Pituuspiiri: 077-28W, korkeus merenpinnasta: 3 m

Tämänhetkinen sää

Tämä raportti tehtiin 18 tuntia ja 5 minuuttia sitten, kello 15.00 UTC
Tuuli 10 kn idästä puuskistuen 21 kn:hen
Lämpötila 27°C
Kosteus 74%
Ilmanpaine 1027 hPa
Näkyvyys 10 km tai enemmän
Hajonneita pilviä 1800 ft:n korkeudessa

METAR: MYNN 201500Z 08010G21KT 9999 BKN018 27/22 A3033

Aika: 04:05 (09:05 UTC)

Sääennuste

Tämä raportti tehtiin 22 tuntia ja 5 minuuttia sitten, kello 11.00 UTC
Ennuste voimassa 20. päivästä klo 12 UTC - 21. päivään klo 12 UTC
Tuuli 10 kn idästä puuskistuen 20 kn:hen
Näkyvyys 10 km tai enemmän
Muutamia pilviä 2000 ft:n korkeudessa
Hajanaisia pilviä 4000 ft:n korkeudessa
Tulossa
20. päivästä klo 14 UTC - 20. päivään klo 16 UTC
Tuuli 15 kn idästä puuskistuen 25 kn:hen

TAF: MYNN 201100Z 2012/2112 08010G20KT 9999 FEW020 SCT040 BECMG 2014/2016 10015G25KT

Säähavainnot ja -ennusteet yli 4000 lentoasemalta (METAR- ja TAF-raportit).

Käytössä olevat sääasemat on merkitty karttaan keltaisilla ja punaisilla pisteillä.

Aseta hiiri pisteen päälle nähdäksesi sääaseman nimen.

Klikkaa sitten nähdäksesi säähavainnot ja -ennusteet.

Kartan vaihtaminen: klikkaa mustalla rastilla varustettuja vihreitä pisteitä, niin voit zoomata sisään; viivalla varustettua vihreää pistettä, niin voit zoomata ulos tai vihreitä nuolia, niin pääset viereisille kartoille.


METAR-TAF: